createdAt,value
2022-12-24T00:00:03.019Z,2.70
2022-12-24T00:02:34.080Z,2.55
2022-12-24T00:05:01.536Z,2.92
2022-12-24T00:07:29.901Z,3.22
2022-12-24T00:09:56.465Z,2.53
2022-12-24T00:12:23.697Z,2.78
2022-12-24T00:14:50.342Z,3.33
2022-12-24T00:17:16.924Z,3.78
2022-12-24T00:19:44.022Z,3.03
2022-12-24T00:22:10.805Z,3.20
2022-12-24T00:24:37.857Z,2.28
2022-12-24T00:27:06.017Z,2.60
2022-12-24T00:29:33.689Z,2.60
2022-12-24T00:32:00.759Z,2.63
2022-12-24T00:34:27.816Z,2.42
2022-12-24T00:36:54.328Z,3.67
2022-12-24T00:39:20.823Z,2.65
2022-12-24T00:41:47.275Z,3.35
2022-12-24T00:44:14.056Z,2.70
2022-12-24T00:46:41.777Z,3.10
2022-12-24T00:49:09.458Z,2.40
2022-12-24T00:51:36.970Z,2.13
2022-12-24T00:54:04.230Z,2.90
2022-12-24T00:56:31.086Z,2.78
2022-12-24T00:58:57.961Z,2.10
2022-12-24T01:01:25.378Z,2.92
2022-12-24T01:03:52.720Z,2.67
2022-12-24T01:06:21.430Z,2.33
2022-12-24T01:08:52.053Z,2.22
2022-12-24T01:11:19.304Z,2.50
2022-12-24T01:13:45.795Z,2.25
2022-12-24T01:16:19.888Z,2.42
2022-12-24T01:18:46.672Z,2.80
2022-12-24T01:21:13.794Z,2.70
2022-12-24T01:23:40.383Z,2.33
2022-12-24T01:26:06.839Z,3.10
2022-12-24T01:28:34.546Z,2.95
2022-12-24T01:31:05.880Z,2.60
2022-12-24T01:33:52.438Z,2.90
2022-12-24T01:36:39.057Z,2.50
2022-12-24T01:39:25.777Z,3.03
2022-12-24T01:42:41.623Z,3.30
2022-12-24T01:45:42.319Z,2.83
2022-12-24T01:48:47.882Z,2.85
2022-12-24T01:51:29.769Z,3.45
2022-12-24T01:54:02.583Z,2.50
2022-12-24T01:56:30.641Z,3.45
2022-12-24T01:59:02.688Z,2.70
2022-12-24T02:01:30.550Z,3.65
2022-12-24T02:03:57.273Z,2.90
2022-12-24T02:06:25.209Z,2.65
2022-12-24T02:08:51.743Z,2.67
2022-12-24T02:11:21.548Z,3.25
2022-12-24T02:13:57.819Z,2.67
2022-12-24T02:16:30.796Z,3.28
2022-12-24T02:19:10.916Z,2.42
2022-12-24T02:21:46.475Z,3.63
2022-12-24T02:24:23.353Z,2.60
2022-12-24T02:27:05.688Z,2.30
2022-12-24T02:30:03.790Z,2.85
2022-12-24T02:33:17.496Z,2.20
2022-12-24T02:36:20.592Z,2.92
2022-12-24T02:39:01.326Z,2.30
2022-12-24T02:42:04.321Z,2.33
2022-12-24T02:44:34.597Z,2.88
2022-12-24T02:49:29.789Z,2.85
2022-12-24T02:51:56.172Z,2.50
2022-12-24T02:54:23.148Z,2.78
2022-12-24T02:57:28.647Z,3.55
2022-12-24T03:00:00.174Z,2.70
2022-12-24T03:02:51.087Z,2.63
2022-12-24T03:05:26.402Z,2.85
2022-12-24T03:08:05.921Z,2.78
2022-12-24T03:11:05.384Z,2.45
2022-12-24T03:13:32.475Z,2.73
2022-12-24T03:15:59.815Z,3.03
2022-12-24T03:18:28.414Z,2.60
2022-12-24T03:21:18.139Z,3.63
2022-12-24T03:23:44.900Z,2.92
2022-12-24T03:26:14.950Z,2.53
2022-12-24T03:28:41.775Z,3.15
2022-12-24T03:31:09.750Z,3.13
2022-12-24T03:33:37.492Z,2.72
2022-12-24T03:36:05.168Z,2.88
2022-12-24T03:38:32.261Z,3.33
2022-12-24T03:40:58.918Z,2.97
2022-12-24T03:43:25.607Z,2.40
2022-12-24T03:45:52.469Z,3.25
2022-12-24T03:48:19.268Z,2.83
2022-12-24T03:50:46.139Z,2.72
2022-12-24T03:53:12.859Z,3.13
2022-12-24T03:55:40.016Z,3.80
2022-12-24T03:58:07.206Z,2.70
2022-12-24T04:00:33.860Z,3.25
2022-12-24T04:03:00.372Z,2.92
2022-12-24T04:05:27.435Z,3.63
2022-12-24T04:07:54.738Z,3.13
2022-12-24T04:10:21.146Z,3.38
2022-12-24T04:12:48.003Z,3.40
2022-12-24T04:15:14.510Z,2.55
2022-12-24T04:17:41.409Z,3.78
2022-12-24T04:20:09.189Z,2.58
2022-12-24T04:22:35.895Z,2.75
2022-12-24T04:25:02.585Z,2.90
2022-12-24T04:27:31.205Z,3.33
2022-12-24T04:29:58.760Z,3.20
2022-12-24T04:32:28.745Z,3.40
2022-12-24T04:34:55.570Z,2.55
2022-12-24T04:37:22.426Z,3.38
2022-12-24T04:39:49.028Z,3.03
2022-12-24T04:42:15.519Z,3.25
2022-12-24T04:44:42.432Z,3.05
2022-12-24T04:47:10.917Z,3.03
2022-12-24T04:49:37.655Z,3.60
2022-12-24T04:52:04.386Z,3.15
2022-12-24T04:54:30.751Z,2.78
2022-12-24T04:56:57.501Z,3.15
2022-12-24T04:59:24.440Z,3.58
2022-12-24T05:01:51.059Z,4.07
2022-12-24T05:04:17.572Z,3.60
2022-12-24T05:06:44.498Z,3.25
2022-12-24T05:09:10.902Z,2.97
2022-12-24T05:11:37.709Z,3.80
2022-12-24T05:14:05.025Z,3.50
2022-12-24T05:16:31.500Z,4.28
2022-12-24T05:18:58.451Z,3.03
2022-12-24T05:21:25.041Z,3.33
2022-12-24T05:24:11.493Z,3.75
2022-12-24T05:26:44.600Z,4.03
2022-12-24T05:29:12.318Z,4.00
2022-12-24T05:31:40.130Z,2.92
2022-12-24T05:34:07.636Z,3.25
2022-12-24T05:36:34.249Z,3.78
2022-12-24T05:39:01.426Z,4.47
2022-12-24T05:41:29.127Z,3.85
2022-12-24T05:43:56.634Z,3.58
2022-12-24T05:46:24.658Z,3.58
2022-12-24T05:48:53.031Z,3.17
2022-12-24T05:51:22.308Z,4.40
2022-12-24T05:53:50.706Z,3.58
2022-12-24T05:56:23.227Z,3.75
2022-12-24T05:58:50.430Z,4.53
2022-12-24T06:01:17.880Z,4.35
2022-12-24T06:03:44.845Z,3.88
2022-12-24T06:06:14.592Z,3.90
2022-12-24T06:08:42.532Z,4.85
2022-12-24T06:11:12.538Z,4.10
2022-12-24T06:13:40.828Z,3.83
2022-12-24T06:16:14.995Z,4.13
2022-12-24T06:18:42.634Z,3.65
2022-12-24T06:21:10.347Z,4.03
2022-12-24T06:23:39.405Z,3.90
2022-12-24T06:26:07.567Z,5.32
2022-12-24T06:28:36.261Z,4.53
2022-12-24T06:31:05.346Z,3.95
2022-12-24T06:33:34.285Z,4.50
2022-12-24T06:36:00.869Z,5.18
2022-12-24T06:38:29.427Z,5.20
2022-12-24T06:40:55.936Z,4.35
2022-12-24T06:43:23.031Z,4.00
2022-12-24T06:45:50.470Z,5.70
2022-12-24T06:48:17.140Z,4.82
2022-12-24T06:50:43.920Z,4.03
2022-12-24T06:53:10.685Z,4.75
2022-12-24T06:55:37.637Z,5.30
2022-12-24T06:58:04.460Z,5.65
2022-12-24T07:00:31.180Z,4.80
2022-12-24T07:02:58.670Z,4.30
2022-12-24T07:05:25.717Z,5.38
2022-12-24T07:07:52.416Z,5.18
2022-12-24T07:10:20.395Z,5.00
2022-12-24T07:12:47.886Z,4.60
2022-12-24T07:15:16.138Z,5.13
2022-12-24T07:17:43.250Z,5.40
2022-12-24T07:20:15.086Z,5.65
2022-12-24T07:22:42.849Z,4.32
2022-12-24T07:25:10.273Z,4.70
2022-12-24T07:27:36.850Z,6.13
2022-12-24T07:30:05.173Z,4.97
2022-12-24T07:32:31.865Z,5.93
2022-12-24T07:34:58.662Z,5.63
2022-12-24T07:37:25.148Z,4.53
2022-12-24T07:39:51.628Z,4.40
2022-12-24T07:42:18.479Z,5.70
2022-12-24T07:44:45.194Z,5.63
2022-12-24T07:47:11.647Z,5.32
2022-12-24T07:49:38.829Z,5.80
2022-12-24T07:52:05.304Z,5.55
2022-12-24T07:54:32.116Z,5.43
2022-12-24T07:56:59.047Z,6.32
2022-12-24T07:59:25.670Z,4.75
2022-12-24T08:01:52.415Z,4.95
2022-12-24T08:04:19.274Z,5.40
2022-12-24T08:06:45.691Z,4.53
2022-12-24T08:09:14.379Z,5.72
2022-12-24T08:11:46.180Z,5.75
2022-12-24T08:14:16.697Z,4.65
2022-12-24T08:16:43.237Z,4.68
2022-12-24T08:19:10.382Z,5.57
2022-12-24T08:21:37.037Z,4.88
2022-12-24T08:24:04.012Z,5.18
2022-12-24T08:26:30.742Z,4.57
2022-12-24T08:28:57.274Z,4.63
2022-12-24T08:31:24.422Z,4.80
2022-12-24T08:33:51.016Z,4.70
2022-12-24T08:36:18.227Z,4.60
2022-12-24T08:38:44.707Z,4.40
2022-12-24T08:41:11.229Z,4.95
2022-12-24T08:43:38.160Z,4.38
2022-12-24T08:46:06.553Z,5.25
2022-12-24T08:48:36.262Z,5.63
2022-12-24T08:51:08.295Z,4.27
2022-12-24T08:53:34.779Z,5.13
2022-12-24T08:56:07.216Z,4.40
2022-12-24T08:58:33.834Z,4.72
2022-12-24T09:01:01.412Z,5.72
2022-12-24T09:03:28.385Z,5.10
2022-12-24T09:05:55.056Z,4.80
2022-12-24T09:08:21.675Z,5.15
2022-12-24T09:10:48.389Z,5.38
2022-12-24T09:13:15.532Z,5.07
2022-12-24T09:15:41.959Z,4.55
2022-12-24T09:18:08.891Z,5.25
2022-12-24T09:20:35.392Z,6.25
2022-12-24T09:23:01.856Z,4.55
2022-12-24T09:25:28.345Z,5.20
2022-12-24T09:27:56.321Z,5.05
2022-12-24T09:30:22.914Z,4.85
2022-12-24T09:32:51.747Z,5.13
2022-12-24T09:35:18.321Z,4.55
2022-12-24T09:37:44.856Z,4.80
2022-12-24T09:40:27.356Z,5.80
2022-12-24T09:42:54.617Z,4.75
2022-12-24T09:45:38.391Z,4.40
2022-12-24T09:48:18.523Z,6.07
2022-12-24T09:51:01.729Z,4.43
2022-12-24T09:53:41.441Z,4.93
2022-12-24T09:56:14.776Z,5.15
2022-12-24T09:58:46.326Z,5.10
2022-12-24T10:01:20.453Z,4.53
2022-12-24T10:03:47.934Z,5.95
2022-12-24T10:06:23.651Z,4.57
2022-12-24T10:09:34.833Z,5.50
2022-12-24T10:12:20.434Z,5.13
2022-12-24T10:15:15.335Z,5.32
2022-12-24T10:18:27.180Z,4.80
2022-12-24T10:21:06.391Z,5.88
2022-12-24T10:23:53.951Z,4.95
2022-12-24T10:26:33.512Z,5.78
2022-12-24T10:29:06.283Z,4.82
2022-12-24T10:31:38.020Z,5.30
2022-12-24T10:34:20.915Z,4.68
2022-12-24T10:36:50.268Z,4.90
2022-12-24T10:39:25.731Z,4.82
2022-12-24T10:41:57.851Z,4.82
2022-12-24T10:44:27.932Z,5.47
2022-12-24T10:46:54.973Z,4.45
2022-12-24T10:49:48.266Z,5.57
2022-12-24T10:52:19.227Z,4.30
2022-12-24T10:55:08.628Z,4.88
2022-12-24T10:57:35.254Z,5.47
2022-12-24T11:00:01.971Z,4.55
2022-12-24T11:02:35.447Z,4.78
2022-12-24T11:05:07.216Z,6.00
2022-12-24T11:07:34.457Z,4.97
2022-12-24T11:10:04.066Z,5.22
2022-12-24T11:12:31.917Z,5.10
2022-12-24T11:15:14.299Z,5.82
2022-12-24T11:17:41.402Z,4.93
2022-12-24T11:20:20.419Z,5.68
2022-12-24T11:22:49.659Z,4.70
2022-12-24T11:25:22.403Z,5.32
2022-12-24T11:27:51.503Z,5.47
2022-12-24T11:30:23.420Z,4.90
2022-12-24T11:33:11.474Z,5.07
2022-12-24T11:35:46.449Z,5.40
2022-12-24T11:38:20.049Z,6.43
2022-12-24T11:40:50.029Z,5.00
2022-12-24T11:43:21.898Z,4.88
2022-12-24T11:45:52.622Z,6.40
2022-12-24T11:48:31.297Z,4.95
2022-12-24T11:51:04.252Z,4.82
2022-12-24T11:53:38.062Z,5.10
2022-12-24T11:56:27.520Z,5.65
2022-12-24T11:58:59.186Z,4.33
2022-12-24T12:01:35.094Z,6.25
2022-12-24T12:04:06.552Z,5.57
2022-12-24T12:06:48.059Z,5.20
2022-12-24T12:09:40.745Z,5.00
2022-12-24T12:12:14.457Z,4.80
2022-12-24T12:14:52.689Z,5.25
2022-12-24T12:17:48.915Z,5.18
2022-12-24T12:20:26.528Z,4.70
2022-12-24T12:23:18.468Z,4.28
2022-12-24T12:26:02.601Z,4.40
2022-12-24T12:28:46.023Z,4.22
2022-12-24T12:31:36.922Z,4.15
2022-12-24T12:34:12.745Z,4.22
2022-12-24T12:36:54.162Z,4.93
2022-12-24T12:39:20.836Z,4.85
2022-12-24T12:41:58.301Z,4.45
2022-12-24T12:45:02.964Z,4.57
2022-12-24T12:47:56.795Z,5.28
2022-12-24T12:50:29.140Z,5.18
2022-12-24T12:53:31.854Z,5.78
2022-12-24T12:56:31.223Z,6.18
2022-12-24T12:58:58.929Z,5.72
2022-12-24T13:01:43.318Z,6.13
2022-12-24T13:04:35.097Z,5.03
2022-12-24T13:07:31.446Z,4.93
2022-12-24T13:10:16.269Z,6.38
2022-12-24T13:12:59.902Z,6.25
2022-12-24T13:15:40.941Z,6.03
2022-12-24T13:18:38.806Z,5.68
2022-12-24T13:21:12.547Z,7.78
2022-12-24T13:23:39.002Z,6.65
2022-12-24T13:26:12.032Z,5.90
2022-12-24T13:28:38.938Z,5.03
2022-12-24T13:31:11.402Z,5.55
2022-12-24T13:33:37.905Z,8.02
2022-12-24T13:36:08.886Z,6.40
2022-12-24T13:38:56.954Z,6.82
2022-12-24T13:41:41.496Z,8.25
2022-12-24T13:44:12.826Z,7.80
2022-12-24T13:47:12.285Z,7.00
2022-12-24T13:49:42.792Z,6.65
2022-12-24T13:54:39.534Z,5.65
2022-12-24T14:00:00.883Z,7.25
2022-12-24T14:02:32.433Z,6.10
2022-12-24T14:05:03.094Z,5.35
2022-12-24T14:09:57.845Z,4.50
2022-12-24T14:12:51.680Z,6.45
2022-12-24T14:15:50.870Z,5.25
2022-12-24T14:18:23.414Z,10.57
2022-12-24T14:20:56.775Z,10.80
2022-12-24T14:23:53.948Z,4.70
2022-12-24T14:26:24.537Z,5.43
2022-12-24T14:28:58.156Z,5.57
2022-12-24T14:31:25.436Z,5.30
2022-12-24T14:33:52.369Z,4.80
2022-12-24T14:36:23.425Z,4.75
2022-12-24T14:38:50.296Z,4.70
2022-12-24T14:41:26.050Z,3.58
2022-12-24T14:44:20.487Z,5.00
2022-12-24T14:46:56.157Z,5.28
2022-12-24T14:49:41.169Z,5.55
2022-12-24T14:52:54.557Z,4.35
2022-12-24T14:55:30.929Z,5.18
2022-12-24T14:58:33.386Z,4.72
2022-12-24T15:01:18.858Z,6.35
2022-12-24T15:03:46.158Z,5.20
2022-12-24T15:06:14.663Z,5.07
2022-12-24T15:08:48.716Z,5.00
2022-12-24T15:11:19.527Z,4.82
2022-12-24T15:13:50.026Z,5.00
2022-12-24T15:18:56.350Z,5.28
2022-12-24T15:21:31.108Z,4.75
2022-12-24T15:23:58.401Z,4.70
2022-12-24T15:26:35.096Z,4.43
2022-12-24T15:29:03.751Z,4.63
2022-12-24T15:31:31.825Z,4.60
2022-12-24T15:33:59.458Z,4.03
2022-12-24T15:36:30.060Z,4.53
2022-12-24T15:41:29.770Z,5.20
2022-12-24T15:44:01.802Z,4.78
2022-12-24T15:46:30.769Z,4.72
2022-12-24T15:49:00.264Z,4.88
2022-12-24T15:51:31.060Z,5.15
2022-12-24T15:54:01.762Z,4.55
2022-12-24T15:56:43.927Z,5.10
2022-12-24T15:59:19.376Z,6.15
2022-12-24T16:01:47.203Z,6.03
2022-12-24T16:04:17.445Z,6.45
2022-12-24T16:07:01.920Z,5.68
2022-12-24T16:09:41.441Z,5.38
2022-12-24T16:12:18.251Z,6.47
2022-12-24T16:14:48.807Z,5.70
2022-12-24T16:17:22.088Z,6.05
2022-12-24T16:19:51.995Z,5.95
2022-12-24T16:22:32.876Z,6.40
2022-12-24T16:25:00.601Z,5.50
2022-12-24T16:27:27.566Z,7.35
2022-12-24T16:29:54.379Z,7.28
2022-12-24T16:32:30.721Z,5.88
2022-12-24T16:34:57.315Z,5.47
2022-12-24T16:37:24.017Z,5.57
2022-12-24T16:39:51.066Z,5.80
2022-12-24T16:42:36.292Z,5.30
2022-12-24T16:45:03.909Z,5.35
2022-12-24T16:47:35.857Z,4.78
2022-12-24T16:50:14.519Z,5.43
2022-12-24T16:52:41.227Z,5.68
2022-12-24T16:55:09.964Z,5.88
2022-12-24T16:57:40.953Z,5.30
2022-12-24T17:00:09.058Z,5.80
2022-12-24T17:02:35.969Z,5.93
2022-12-24T17:05:02.906Z,5.38
2022-12-24T17:07:29.555Z,7.50
2022-12-24T17:09:56.567Z,6.75
2022-12-24T17:12:23.069Z,6.40
2022-12-24T17:14:49.761Z,6.50
2022-12-24T17:17:24.079Z,5.05
2022-12-24T17:19:51.363Z,5.70
2022-12-24T17:22:17.966Z,5.85
2022-12-24T17:24:44.503Z,6.35
2022-12-24T17:27:11.415Z,6.40
2022-12-24T17:29:38.052Z,6.38
2022-12-24T17:32:04.975Z,5.90
2022-12-24T17:34:32.149Z,7.10
2022-12-24T17:36:58.947Z,6.05
2022-12-24T17:39:27.911Z,5.97
2022-12-24T17:41:55.078Z,7.15
2022-12-24T17:44:21.658Z,6.95
2022-12-24T17:46:49.413Z,6.28
2022-12-24T17:49:15.946Z,8.23
2022-12-24T17:51:45.546Z,7.30
2022-12-24T17:54:13.429Z,6.85
2022-12-24T17:56:40.301Z,7.93
2022-12-24T17:59:06.882Z,6.65
2022-12-24T18:01:33.444Z,6.50
2022-12-24T18:04:02.439Z,6.93
2022-12-24T18:06:29.706Z,6.53
2022-12-24T18:08:56.358Z,6.25
2022-12-24T18:11:30.475Z,6.13
2022-12-24T18:13:57.620Z,5.65
2022-12-24T18:16:26.844Z,5.53
2022-12-24T18:18:54.863Z,6.03
2022-12-24T18:21:23.617Z,5.95
2022-12-24T18:23:51.625Z,5.97
2022-12-24T18:26:19.573Z,5.78
2022-12-24T18:28:47.223Z,5.97
2022-12-24T18:31:19.588Z,6.45
2022-12-24T18:33:47.766Z,5.18
2022-12-24T18:36:14.946Z,6.57
2022-12-24T18:38:42.381Z,5.85
2022-12-24T18:41:12.541Z,6.30
2022-12-24T18:43:39.736Z,5.38
2022-12-24T18:46:11.954Z,5.93
2022-12-24T18:48:38.865Z,5.45
2022-12-24T18:51:06.673Z,5.65
2022-12-24T18:53:33.654Z,6.28
2022-12-24T18:56:06.718Z,5.45
2022-12-24T18:58:33.465Z,6.32
2022-12-24T19:01:00.296Z,6.20
2022-12-24T19:03:27.394Z,6.95
2022-12-24T19:05:54.019Z,7.05
2022-12-24T19:08:55.891Z,5.97
2022-12-24T19:11:08.023Z,6.50
2022-12-24T19:13:34.823Z,6.55
2022-12-24T19:16:05.507Z,6.25
2022-12-24T19:18:33.206Z,5.97
2022-12-24T19:21:08.282Z,6.50
2022-12-24T19:23:35.540Z,6.18
2022-12-24T19:26:03.658Z,6.60
2022-12-24T19:28:31.190Z,6.68
2022-12-24T19:31:22.505Z,6.03
2022-12-24T19:33:54.665Z,7.38
2022-12-24T19:36:24.408Z,7.35
2022-12-24T19:38:51.396Z,6.50
2022-12-24T19:41:26.336Z,6.93
2022-12-24T19:43:56.563Z,7.05
2022-12-24T19:46:26.268Z,7.28
2022-12-24T19:48:55.927Z,6.90
2022-12-24T19:51:23.910Z,7.05
2022-12-24T19:53:52.473Z,6.95
2022-12-24T19:56:21.175Z,7.47
2022-12-24T19:58:48.676Z,5.80
2022-12-24T20:01:18.991Z,6.93
2022-12-24T20:03:46.788Z,7.13
2022-12-24T20:06:14.910Z,6.38
2022-12-24T20:08:42.378Z,7.28
2022-12-24T20:11:13.935Z,7.20
2022-12-24T20:13:42.065Z,6.07
2022-12-24T20:16:11.866Z,6.85
2022-12-24T20:18:39.849Z,6.43
2022-12-24T20:21:09.139Z,6.18
2022-12-24T20:23:40.867Z,6.33
2022-12-24T20:26:10.749Z,6.03
2022-12-24T20:28:37.798Z,5.72
2022-12-24T20:31:32.565Z,6.40
2022-12-24T20:34:01.123Z,6.60
2022-12-24T20:36:29.454Z,7.65
2022-12-24T20:38:56.801Z,5.80
2022-12-24T20:41:25.865Z,6.10
2022-12-24T20:43:52.745Z,6.47
2022-12-24T20:46:22.027Z,6.95
2022-12-24T20:48:49.157Z,6.05
2022-12-24T20:51:23.881Z,6.07
2022-12-24T20:53:56.375Z,6.75
2022-12-24T20:56:23.291Z,6.43
2022-12-24T20:58:50.570Z,6.25
2022-12-24T21:01:21.065Z,6.80
2022-12-24T21:03:47.925Z,5.97
2022-12-24T21:06:18.154Z,6.50
2022-12-24T21:08:46.442Z,5.53
2022-12-24T21:11:31.679Z,5.85
2022-12-24T21:13:58.359Z,5.75
2022-12-24T21:16:25.113Z,5.47
2022-12-24T21:18:51.690Z,5.65
2022-12-24T21:21:18.425Z,4.35
2022-12-24T21:23:45.087Z,4.85
2022-12-24T21:26:11.621Z,5.13
2022-12-24T21:28:38.120Z,6.55
2022-12-24T21:31:10.332Z,5.10
2022-12-24T21:33:38.537Z,5.00
2022-12-24T21:36:06.027Z,4.47
2022-12-24T21:38:34.258Z,5.22
2022-12-24T21:41:06.414Z,4.82
2022-12-24T21:43:34.906Z,4.80
2022-12-24T21:46:06.260Z,5.18
2022-12-24T21:48:51.813Z,4.60
2022-12-24T21:51:19.263Z,4.65
2022-12-24T21:54:04.461Z,3.90
2022-12-24T21:56:31.330Z,5.38
2022-12-24T21:58:57.739Z,4.75
2022-12-24T22:01:24.785Z,4.25
2022-12-24T22:03:51.643Z,4.90
2022-12-24T22:06:37.020Z,4.45
2022-12-24T22:09:22.612Z,4.28
2022-12-24T22:11:54.260Z,4.28
2022-12-24T22:14:21.738Z,3.97
2022-12-24T22:16:48.879Z,4.13
2022-12-24T22:19:15.418Z,4.30
2022-12-24T22:21:42.413Z,4.65
2022-12-24T22:24:09.787Z,3.75
2022-12-24T22:26:36.199Z,3.97
2022-12-24T22:29:06.418Z,3.35
2022-12-24T22:34:00.539Z,3.95
2022-12-24T22:36:27.543Z,5.10
2022-12-24T22:38:54.238Z,3.60
2022-12-24T22:41:20.698Z,3.28
2022-12-24T22:43:49.839Z,3.25
2022-12-24T22:46:17.189Z,3.38
2022-12-24T22:48:45.794Z,3.50
2022-12-24T22:51:16.146Z,3.13
2022-12-24T22:53:43.577Z,3.40
2022-12-24T22:56:15.530Z,3.10
2022-12-24T22:58:42.667Z,4.13
2022-12-24T23:01:09.627Z,4.10
2022-12-24T23:03:36.869Z,3.38
2022-12-24T23:06:05.691Z,2.90
2022-12-24T23:08:34.775Z,3.55
2022-12-24T23:11:07.969Z,3.00
2022-12-24T23:13:56.612Z,3.03
2022-12-24T23:16:23.473Z,3.03
2022-12-24T23:18:50.412Z,2.80
2022-12-24T23:21:17.068Z,3.00
2022-12-24T23:23:43.878Z,2.90
2022-12-24T23:26:13.111Z,2.85
2022-12-24T23:28:40.360Z,3.00
2022-12-24T23:31:07.743Z,2.53
2022-12-24T23:33:35.489Z,2.85
2022-12-24T23:36:02.471Z,3.00
2022-12-24T23:38:29.131Z,3.15
2022-12-24T23:41:00.909Z,2.83
2022-12-24T23:43:28.250Z,2.47
2022-12-24T23:45:55.384Z,2.50
2022-12-24T23:48:23.367Z,2.83
2022-12-24T23:50:50.268Z,2.83
2022-12-24T23:53:19.610Z,2.30
2022-12-24T23:55:46.429Z,2.47
2022-12-24T23:58:15.677Z,3.05
